sensor_id;sensor_type;location;lat;lon;timestamp;P1;durP1;ratioP1;P2;durP2;ratioP2
19643;SDS011;9970;-36.854;174.870;2023-06-14T00:02:33;3.33;;;1.00;;
19643;SDS011;9970;-36.854;174.870;2023-06-14T00:05:07;0.90;;;0.90;;
19643;SDS011;9970;-36.854;174.870;2023-06-14T00:07:41;1.40;;;1.40;;
19643;SDS011;9970;-36.854;174.870;2023-06-14T00:10:14;1.67;;;1.00;;
19643;SDS011;9970;-36.854;174.870;2023-06-14T00:12:48;0.90;;;0.90;;
19643;SDS011;9970;-36.854;174.870;2023-06-14T00:15:21;0.83;;;0.83;;
19643;SDS011;9970;-36.854;174.870;2023-06-14T00:17:54;0.80;;;0.80;;
19643;SDS011;9970;-36.854;174.870;2023-06-14T00:20:29;1.10;;;1.10;;
19643;SDS011;9970;-36.854;174.870;2023-06-14T00:23:03;0.90;;;0.90;;
19643;SDS011;9970;-36.854;174.870;2023-06-14T00:25:35;1.17;;;1.17;;
19643;SDS011;9970;-36.854;174.870;2023-06-14T00:28:08;3.20;;;1.00;;
19643;SDS011;9970;-36.854;174.870;2023-06-14T00:30:41;0.83;;;0.83;;
19643;SDS011;9970;-36.854;174.870;2023-06-14T00:33:15;1.10;;;1.10;;
19643;SDS011;9970;-36.854;174.870;2023-06-14T00:35:48;1.00;;;1.00;;
19643;SDS011;9970;-36.854;174.870;2023-06-14T00:38:22;0.97;;;0.90;;
19643;SDS011;9970;-36.854;174.870;2023-06-14T00:40:55;1.30;;;1.30;;
19643;SDS011;9970;-36.854;174.870;2023-06-14T00:43:28;1.20;;;1.10;;
19643;SDS011;9970;-36.854;174.870;2023-06-14T00:46:02;1.10;;;1.10;;
19643;SDS011;9970;-36.854;174.870;2023-06-14T00:48:35;1.10;;;1.10;;
19643;SDS011;9970;-36.854;174.870;2023-06-14T00:51:09;0.90;;;0.90;;
19643;SDS011;9970;-36.854;174.870;2023-06-14T00:53:42;1.10;;;1.10;;
19643;SDS011;9970;-36.854;174.870;2023-06-14T00:56:17;1.27;;;1.20;;
19643;SDS011;9970;-36.854;174.870;2023-06-14T00:58:50;1.03;;;1.03;;
19643;SDS011;9970;-36.854;174.870;2023-06-14T01:01:23;1.30;;;0.90;;
19643;SDS011;9970;-36.854;174.870;2023-06-14T01:03:57;1.10;;;1.10;;
19643;SDS011;9970;-36.854;174.870;2023-06-14T01:06:45;0.87;;;0.87;;
19643;SDS011;9970;-36.854;174.870;2023-06-14T01:09:37;0.90;;;0.90;;
19643;SDS011;9970;-36.854;174.870;2023-06-14T01:12:34;0.97;;;0.97;;
19643;SDS011;9970;-36.854;174.870;2023-06-14T01:15:16;0.77;;;0.77;;
19643;SDS011;9970;-36.854;174.870;2023-06-14T01:17:51;2.10;;;0.90;;
19643;SDS011;9970;-36.854;174.870;2023-06-14T01:20:27;1.20;;;0.97;;
19643;SDS011;9970;-36.854;174.870;2023-06-14T01:23:00;3.60;;;1.00;;
19643;SDS011;9970;-36.854;174.870;2023-06-14T01:25:34;1.37;;;0.80;;
19643;SDS011;9970;-36.854;174.870;2023-06-14T01:28:08;1.47;;;1.13;;
19643;SDS011;9970;-36.854;174.870;2023-06-14T01:30:42;2.23;;;1.13;;
19643;SDS011;9970;-36.854;174.870;2023-06-14T01:33:24;1.00;;;1.00;;
19643;SDS011;9970;-36.854;174.870;2023-06-14T01:35:52;0.77;;;0.77;;
19643;SDS011;9970;-36.854;174.870;2023-06-14T01:38:26;0.90;;;0.90;;
19643;SDS011;9970;-36.854;174.870;2023-06-14T01:40:59;0.70;;;0.70;;
19643;SDS011;9970;-36.854;174.870;2023-06-14T01:43:33;0.80;;;0.80;;
19643;SDS011;9970;-36.854;174.870;2023-06-14T01:46:07;0.83;;;0.80;;
19643;SDS011;9970;-36.854;174.870;2023-06-14T01:48:41;3.17;;;0.80;;
19643;SDS011;9970;-36.854;174.870;2023-06-14T01:51:14;1.10;;;1.10;;
19643;SDS011;9970;-36.854;174.870;2023-06-14T01:53:47;1.03;;;1.03;;
19643;SDS011;9970;-36.854;174.870;2023-06-14T01:56:20;2.37;;;1.00;;
19643;SDS011;9970;-36.854;174.870;2023-06-14T01:58:53;4.33;;;1.10;;
19643;SDS011;9970;-36.854;174.870;2023-06-14T02:01:26;1.40;;;0.80;;
19643;SDS011;9970;-36.854;174.870;2023-06-14T02:04:00;0.80;;;0.80;;
19643;SDS011;9970;-36.854;174.870;2023-06-14T02:06:33;1.17;;;0.90;;
19643;SDS011;9970;-36.854;174.870;2023-06-14T02:09:06;2.97;;;1.30;;
19643;SDS011;9970;-36.854;174.870;2023-06-14T02:11:39;1.40;;;0.90;;
19643;SDS011;9970;-36.854;174.870;2023-06-14T02:14:12;1.07;;;1.07;;
19643;SDS011;9970;-36.854;174.870;2023-06-14T02:16:46;2.97;;;1.47;;
19643;SDS011;9970;-36.854;174.870;2023-06-14T02:19:19;1.20;;;1.10;;
19643;SDS011;9970;-36.854;174.870;2023-06-14T02:21:52;1.37;;;1.00;;
19643;SDS011;9970;-36.854;174.870;2023-06-14T02:24:25;1.07;;;0.90;;
19643;SDS011;9970;-36.854;174.870;2023-06-14T02:26:58;1.67;;;0.97;;
19643;SDS011;9970;-36.854;174.870;2023-06-14T02:29:31;1.00;;;1.00;;
19643;SDS011;9970;-36.854;174.870;2023-06-14T02:32:04;0.80;;;0.80;;
19643;SDS011;9970;-36.854;174.870;2023-06-14T02:34:45;0.90;;;0.90;;
19643;SDS011;9970;-36.854;174.870;2023-06-14T02:37:19;2.33;;;1.10;;
19643;SDS011;9970;-36.854;174.870;2023-06-14T02:39:52;7.83;;;1.00;;
19643;SDS011;9970;-36.854;174.870;2023-06-14T02:42:25;1.63;;;1.53;;
19643;SDS011;9970;-36.854;174.870;2023-06-14T02:44:58;0.87;;;0.87;;
19643;SDS011;9970;-36.854;174.870;2023-06-14T02:47:31;1.43;;;0.80;;
19643;SDS011;9970;-36.854;174.870;2023-06-14T02:50:05;0.67;;;0.67;;
19643;SDS011;9970;-36.854;174.870;2023-06-14T02:52:39;1.57;;;1.07;;
19643;SDS011;9970;-36.854;174.870;2023-06-14T02:55:13;0.70;;;0.70;;
19643;SDS011;9970;-36.854;174.870;2023-06-14T02:57:46;0.73;;;0.73;;
19643;SDS011;9970;-36.854;174.870;2023-06-14T03:00:19;0.60;;;0.60;;
19643;SDS011;9970;-36.854;174.870;2023-06-14T03:02:52;0.80;;;0.80;;
19643;SDS011;9970;-36.854;174.870;2023-06-14T03:05:25;0.67;;;0.67;;
19643;SDS011;9970;-36.854;174.870;2023-06-14T03:07:58;0.80;;;0.80;;
19643;SDS011;9970;-36.854;174.870;2023-06-14T03:10:32;2.30;;;0.90;;
19643;SDS011;9970;-36.854;174.870;2023-06-14T03:13:05;1.33;;;1.23;;
19643;SDS011;9970;-36.854;174.870;2023-06-14T03:15:39;0.70;;;0.70;;
19643;SDS011;9970;-36.854;174.870;2023-06-14T03:18:11;1.23;;;1.23;;
19643;SDS011;9970;-36.854;174.870;2023-06-14T03:20:45;0.70;;;0.70;;
19643;SDS011;9970;-36.854;174.870;2023-06-14T03:23:18;0.70;;;0.70;;
19643;SDS011;9970;-36.854;174.870;2023-06-14T03:25:51;0.83;;;0.70;;
19643;SDS011;9970;-36.854;174.870;2023-06-14T03:28:24;9.43;;;1.87;;
19643;SDS011;9970;-36.854;174.870;2023-06-14T03:30:57;1.00;;;1.00;;
19643;SDS011;9970;-36.854;174.870;2023-06-14T03:33:31;9.43;;;2.50;;
19643;SDS011;9970;-36.854;174.870;2023-06-14T03:36:04;2.60;;;2.30;;
19643;SDS011;9970;-36.854;174.870;2023-06-14T03:38:40;8.03;;;3.40;;
19643;SDS011;9970;-36.854;174.870;2023-06-14T03:41:13;5.10;;;2.67;;
19643;SDS011;9970;-36.854;174.870;2023-06-14T03:43:46;1.53;;;1.43;;
19643;SDS011;9970;-36.854;174.870;2023-06-14T03:46:19;0.97;;;0.80;;
19643;SDS011;9970;-36.854;174.870;2023-06-14T03:48:52;0.70;;;0.70;;
19643;SDS011;9970;-36.854;174.870;2023-06-14T03:51:25;0.70;;;0.70;;
19643;SDS011;9970;-36.854;174.870;2023-06-14T03:54:02;1.00;;;0.70;;
19643;SDS011;9970;-36.854;174.870;2023-06-14T03:56:36;1.53;;;0.80;;
19643;SDS011;9970;-36.854;174.870;2023-06-14T03:59:10;0.77;;;0.77;;
19643;SDS011;9970;-36.854;174.870;2023-06-14T04:01:42;1.10;;;1.10;;
19643;SDS011;9970;-36.854;174.870;2023-06-14T04:04:16;0.93;;;0.70;;
19643;SDS011;9970;-36.854;174.870;2023-06-14T04:06:49;0.70;;;0.70;;
19643;SDS011;9970;-36.854;174.870;2023-06-14T04:09:22;2.40;;;1.00;;
19643;SDS011;9970;-36.854;174.870;2023-06-14T04:11:55;1.40;;;1.30;;
19643;SDS011;9970;-36.854;174.870;2023-06-14T04:14:27;1.73;;;1.63;;
19643;SDS011;9970;-36.854;174.870;2023-06-14T04:17:06;1.40;;;0.90;;
19643;SDS011;9970;-36.854;174.870;2023-06-14T04:19:39;0.83;;;0.83;;
19643;SDS011;9970;-36.854;174.870;2023-06-14T04:22:12;0.80;;;0.80;;
19643;SDS011;9970;-36.854;174.870;2023-06-14T04:24:45;0.70;;;0.70;;
19643;SDS011;9970;-36.854;174.870;2023-06-14T04:27:20;1.00;;;1.00;;
19643;SDS011;9970;-36.854;174.870;2023-06-14T04:29:54;2.70;;;1.00;;
19643;SDS011;9970;-36.854;174.870;2023-06-14T04:32:28;1.43;;;1.10;;
19643;SDS011;9970;-36.854;174.870;2023-06-14T04:35:02;1.00;;;1.00;;
19643;SDS011;9970;-36.854;174.870;2023-06-14T04:37:37;2.07;;;0.90;;
19643;SDS011;9970;-36.854;174.870;2023-06-14T04:40:11;1.43;;;0.83;;
19643;SDS011;9970;-36.854;174.870;2023-06-14T04:42:44;0.63;;;0.63;;
19643;SDS011;9970;-36.854;174.870;2023-06-14T04:45:16;1.23;;;1.13;;
19643;SDS011;9970;-36.854;174.870;2023-06-14T04:47:49;3.23;;;1.00;;
19643;SDS011;9970;-36.854;174.870;2023-06-14T04:50:24;0.70;;;0.70;;
19643;SDS011;9970;-36.854;174.870;2023-06-14T04:52:57;8.90;;;1.03;;
19643;SDS011;9970;-36.854;174.870;2023-06-14T04:55:30;1.33;;;1.23;;
19643;SDS011;9970;-36.854;174.870;2023-06-14T04:58:03;1.20;;;1.10;;
19643;SDS011;9970;-36.854;174.870;2023-06-14T05:00:35;1.10;;;1.10;;
19643;SDS011;9970;-36.854;174.870;2023-06-14T05:03:08;1.77;;;1.67;;
19643;SDS011;9970;-36.854;174.870;2023-06-14T05:05:42;54.17;;;31.30;;
19643;SDS011;9970;-36.854;174.870;2023-06-14T05:08:15;25.10;;;16.93;;
19643;SDS011;9970;-36.854;174.870;2023-06-14T05:10:48;8.77;;;6.80;;
19643;SDS011;9970;-36.854;174.870;2023-06-14T05:13:22;9.57;;;5.43;;
19643;SDS011;9970;-36.854;174.870;2023-06-14T05:15:56;6.63;;;4.93;;
19643;SDS011;9970;-36.854;174.870;2023-06-14T05:18:30;6.40;;;5.40;;
19643;SDS011;9970;-36.854;174.870;2023-06-14T05:21:04;7.10;;;5.50;;
19643;SDS011;9970;-36.854;174.870;2023-06-14T05:23:37;6.10;;;5.50;;
19643;SDS011;9970;-36.854;174.870;2023-06-14T05:26:10;6.33;;;4.67;;
19643;SDS011;9970;-36.854;174.870;2023-06-14T05:28:43;4.57;;;4.17;;
19643;SDS011;9970;-36.854;174.870;2023-06-14T05:31:16;4.30;;;2.70;;
19643;SDS011;9970;-36.854;174.870;2023-06-14T05:33:49;2.10;;;2.00;;
19643;SDS011;9970;-36.854;174.870;2023-06-14T05:36:22;3.20;;;2.20;;
19643;SDS011;9970;-36.854;174.870;2023-06-14T05:38:55;3.13;;;2.57;;
19643;SDS011;9970;-36.854;174.870;2023-06-14T05:41:29;2.90;;;2.77;;
19643;SDS011;9970;-36.854;174.870;2023-06-14T05:44:02;2.67;;;2.47;;
19643;SDS011;9970;-36.854;174.870;2023-06-14T05:46:35;3.10;;;2.77;;
19643;SDS011;9970;-36.854;174.870;2023-06-14T05:49:09;5.73;;;3.73;;
19643;SDS011;9970;-36.854;174.870;2023-06-14T05:51:42;7.67;;;5.00;;
19643;SDS011;9970;-36.854;174.870;2023-06-14T05:54:15;11.63;;;7.77;;
19643;SDS011;9970;-36.854;174.870;2023-06-14T05:56:48;8.13;;;6.57;;
19643;SDS011;9970;-36.854;174.870;2023-06-14T05:59:21;5.17;;;4.50;;
19643;SDS011;9970;-36.854;174.870;2023-06-14T06:01:54;3.80;;;3.60;;
19643;SDS011;9970;-36.854;174.870;2023-06-14T06:04:28;3.83;;;3.53;;
19643;SDS011;9970;-36.854;174.870;2023-06-14T06:07:00;4.50;;;4.20;;
19643;SDS011;9970;-36.854;174.870;2023-06-14T06:09:33;5.03;;;3.27;;
19643;SDS011;9970;-36.854;174.870;2023-06-14T06:12:07;7.90;;;2.77;;
19643;SDS011;9970;-36.854;174.870;2023-06-14T06:14:40;4.67;;;2.40;;
19643;SDS011;9970;-36.854;174.870;2023-06-14T06:17:13;4.00;;;2.57;;
19643;SDS011;9970;-36.854;174.870;2023-06-14T06:19:46;8.20;;;2.67;;
19643;SDS011;9970;-36.854;174.870;2023-06-14T06:22:19;2.77;;;2.67;;
19643;SDS011;9970;-36.854;174.870;2023-06-14T06:24:52;2.30;;;2.30;;
19643;SDS011;9970;-36.854;174.870;2023-06-14T06:27:25;2.87;;;2.23;;
19643;SDS011;9970;-36.854;174.870;2023-06-14T06:29:58;2.73;;;2.63;;
19643;SDS011;9970;-36.854;174.870;2023-06-14T06:32:31;3.23;;;2.90;;
19643;SDS011;9970;-36.854;174.870;2023-06-14T06:35:04;4.00;;;3.43;;
19643;SDS011;9970;-36.854;174.870;2023-06-14T06:37:38;4.00;;;3.70;;
19643;SDS011;9970;-36.854;174.870;2023-06-14T06:40:12;3.93;;;3.60;;
19643;SDS011;9970;-36.854;174.870;2023-06-14T06:42:45;3.93;;;3.60;;
19643;SDS011;9970;-36.854;174.870;2023-06-14T06:45:19;3.40;;;3.10;;
19643;SDS011;9970;-36.854;174.870;2023-06-14T06:47:53;4.80;;;3.73;;
19643;SDS011;9970;-36.854;174.870;2023-06-14T06:50:25;3.80;;;3.37;;
19643;SDS011;9970;-36.854;174.870;2023-06-14T06:52:58;3.10;;;2.80;;
19643;SDS011;9970;-36.854;174.870;2023-06-14T06:55:31;2.73;;;2.53;;
19643;SDS011;9970;-36.854;174.870;2023-06-14T06:58:04;2.93;;;2.63;;
19643;SDS011;9970;-36.854;174.870;2023-06-14T07:00:37;7.37;;;2.70;;
19643;SDS011;9970;-36.854;174.870;2023-06-14T07:03:10;4.83;;;3.17;;
19643;SDS011;9970;-36.854;174.870;2023-06-14T07:05:43;3.13;;;2.77;;
19643;SDS011;9970;-36.854;174.870;2023-06-14T07:08:16;2.90;;;2.73;;
19643;SDS011;9970;-36.854;174.870;2023-06-14T07:10:49;3.23;;;2.87;;
19643;SDS011;9970;-36.854;174.870;2023-06-14T07:13:22;2.60;;;2.50;;
19643;SDS011;9970;-36.854;174.870;2023-06-14T07:15:57;2.57;;;2.40;;
19643;SDS011;9970;-36.854;174.870;2023-06-14T07:18:31;4.30;;;3.30;;
19643;SDS011;9970;-36.854;174.870;2023-06-14T07:21:05;6.50;;;5.83;;
19643;SDS011;9970;-36.854;174.870;2023-06-14T07:23:38;9.60;;;6.80;;
19643;SDS011;9970;-36.854;174.870;2023-06-14T07:26:11;8.50;;;5.57;;
19643;SDS011;9970;-36.854;174.870;2023-06-14T07:28:44;5.73;;;5.17;;
19643;SDS011;9970;-36.854;174.870;2023-06-14T07:31:18;5.33;;;4.83;;
19643;SDS011;9970;-36.854;174.870;2023-06-14T07:33:51;4.77;;;4.40;;
19643;SDS011;9970;-36.854;174.870;2023-06-14T07:36:24;5.00;;;4.47;;
19643;SDS011;9970;-36.854;174.870;2023-06-14T07:38:57;4.40;;;4.10;;
19643;SDS011;9970;-36.854;174.870;2023-06-14T07:41:31;4.00;;;3.70;;
19643;SDS011;9970;-36.854;174.870;2023-06-14T07:44:04;4.07;;;3.70;;
19643;SDS011;9970;-36.854;174.870;2023-06-14T07:46:37;7.27;;;4.80;;
19643;SDS011;9970;-36.854;174.870;2023-06-14T07:49:10;5.50;;;4.90;;
19643;SDS011;9970;-36.854;174.870;2023-06-14T07:51:43;4.17;;;3.80;;
19643;SDS011;9970;-36.854;174.870;2023-06-14T07:54:17;4.97;;;4.60;;
19643;SDS011;9970;-36.854;174.870;2023-06-14T07:56:51;4.20;;;3.77;;
19643;SDS011;9970;-36.854;174.870;2023-06-14T07:59:25;5.50;;;4.30;;
19643;SDS011;9970;-36.854;174.870;2023-06-14T08:01:58;5.40;;;4.00;;
19643;SDS011;9970;-36.854;174.870;2023-06-14T08:04:31;3.90;;;3.50;;
19643;SDS011;9970;-36.854;174.870;2023-06-14T08:07:04;3.73;;;3.43;;
19643;SDS011;9970;-36.854;174.870;2023-06-14T08:09:37;4.77;;;3.67;;
19643;SDS011;9970;-36.854;174.870;2023-06-14T08:12:10;4.47;;;3.97;;
19643;SDS011;9970;-36.854;174.870;2023-06-14T08:14:43;4.27;;;3.90;;
19643;SDS011;9970;-36.854;174.870;2023-06-14T08:17:16;4.53;;;4.03;;
19643;SDS011;9970;-36.854;174.870;2023-06-14T08:19:49;4.47;;;3.73;;
19643;SDS011;9970;-36.854;174.870;2023-06-14T08:22:24;3.90;;;3.60;;
19643;SDS011;9970;-36.854;174.870;2023-06-14T08:24:59;5.63;;;3.97;;
19643;SDS011;9970;-36.854;174.870;2023-06-14T08:27:32;4.53;;;4.20;;
19643;SDS011;9970;-36.854;174.870;2023-06-14T08:30:06;6.70;;;4.50;;
19643;SDS011;9970;-36.854;174.870;2023-06-14T08:32:39;8.67;;;4.47;;
19643;SDS011;9970;-36.854;174.870;2023-06-14T08:35:13;4.20;;;3.90;;
19643;SDS011;9970;-36.854;174.870;2023-06-14T08:37:46;4.37;;;4.10;;
19643;SDS011;9970;-36.854;174.870;2023-06-14T08:40:19;4.83;;;4.40;;
19643;SDS011;9970;-36.854;174.870;2023-06-14T08:42:55;7.40;;;6.70;;
19643;SDS011;9970;-36.854;174.870;2023-06-14T08:45:28;6.17;;;5.57;;
19643;SDS011;9970;-36.854;174.870;2023-06-14T08:48:02;5.33;;;4.67;;
19643;SDS011;9970;-36.854;174.870;2023-06-14T08:50:35;6.40;;;5.03;;
19643;SDS011;9970;-36.854;174.870;2023-06-14T08:53:10;5.90;;;4.37;;
19643;SDS011;9970;-36.854;174.870;2023-06-14T08:55:46;5.70;;;5.20;;
19643;SDS011;9970;-36.854;174.870;2023-06-14T08:58:20;7.23;;;5.93;;
19643;SDS011;9970;-36.854;174.870;2023-06-14T09:00:53;13.33;;;7.00;;
19643;SDS011;9970;-36.854;174.870;2023-06-14T09:03:26;9.60;;;7.10;;
19643;SDS011;9970;-36.854;174.870;2023-06-14T09:06:03;9.83;;;6.20;;
19643;SDS011;9970;-36.854;174.870;2023-06-14T09:08:37;5.93;;;5.63;;
19643;SDS011;9970;-36.854;174.870;2023-06-14T09:11:12;9.90;;;6.67;;
19643;SDS011;9970;-36.854;174.870;2023-06-14T09:13:46;9.23;;;7.70;;
19643;SDS011;9970;-36.854;174.870;2023-06-14T09:16:19;11.20;;;6.50;;
19643;SDS011;9970;-36.854;174.870;2023-06-14T09:18:54;7.10;;;6.43;;
19643;SDS011;9970;-36.854;174.870;2023-06-14T09:21:28;9.07;;;7.33;;
19643;SDS011;9970;-36.854;174.870;2023-06-14T09:24:03;8.67;;;7.87;;
19643;SDS011;9970;-36.854;174.870;2023-06-14T09:26:37;22.23;;;10.70;;
19643;SDS011;9970;-36.854;174.870;2023-06-14T09:29:11;18.63;;;11.50;;
19643;SDS011;9970;-36.854;174.870;2023-06-14T09:31:46;21.03;;;11.93;;
19643;SDS011;9970;-36.854;174.870;2023-06-14T09:34:18;19.10;;;12.27;;
19643;SDS011;9970;-36.854;174.870;2023-06-14T09:36:52;16.97;;;11.70;;
19643;SDS011;9970;-36.854;174.870;2023-06-14T09:39:26;14.20;;;10.90;;
19643;SDS011;9970;-36.854;174.870;2023-06-14T09:41:59;22.23;;;12.77;;
19643;SDS011;9970;-36.854;174.870;2023-06-14T09:44:32;20.13;;;13.20;;
19643;SDS011;9970;-36.854;174.870;2023-06-14T09:47:05;15.77;;;11.77;;
19643;SDS011;9970;-36.854;174.870;2023-06-14T09:49:39;18.53;;;13.80;;
19643;SDS011;9970;-36.854;174.870;2023-06-14T09:52:13;20.50;;;12.77;;
19643;SDS011;9970;-36.854;174.870;2023-06-14T09:54:47;14.40;;;10.57;;
19643;SDS011;9970;-36.854;174.870;2023-06-14T09:57:23;11.80;;;9.20;;
19643;SDS011;9970;-36.854;174.870;2023-06-14T09:59:59;11.73;;;7.93;;
19643;SDS011;9970;-36.854;174.870;2023-06-14T10:02:35;10.30;;;8.27;;
19643;SDS011;9970;-36.854;174.870;2023-06-14T10:05:10;11.10;;;6.63;;
19643;SDS011;9970;-36.854;174.870;2023-06-14T10:07:55;10.23;;;6.57;;
19643;SDS011;9970;-36.854;174.870;2023-06-14T10:10:33;7.50;;;6.80;;
19643;SDS011;9970;-36.854;174.870;2023-06-14T10:13:07;13.07;;;7.27;;
19643;SDS011;9970;-36.854;174.870;2023-06-14T10:24:20;7.70;;;6.37;;
19643;SDS011;9970;-36.854;174.870;2023-06-14T10:26:56;17.93;;;10.10;;
19643;SDS011;9970;-36.854;174.870;2023-06-14T10:29:29;18.70;;;10.30;;
19643;SDS011;9970;-36.854;174.870;2023-06-14T10:32:03;10.70;;;8.30;;
19643;SDS011;9970;-36.854;174.870;2023-06-14T10:34:38;9.80;;;6.80;;
19643;SDS011;9970;-36.854;174.870;2023-06-14T10:37:13;10.77;;;8.17;;
19643;SDS011;9970;-36.854;174.870;2023-06-14T10:39:47;11.83;;;8.80;;
19643;SDS011;9970;-36.854;174.870;2023-06-14T10:42:20;12.97;;;8.53;;
19643;SDS011;9970;-36.854;174.870;2023-06-14T10:44:58;12.30;;;6.87;;
19643;SDS011;9970;-36.854;174.870;2023-06-14T10:47:28;9.33;;;7.10;;
19643;SDS011;9970;-36.854;174.870;2023-06-14T10:50:07;6.97;;;5.60;;
19643;SDS011;9970;-36.854;174.870;2023-06-14T10:52:43;9.90;;;6.30;;
19643;SDS011;9970;-36.854;174.870;2023-06-14T10:55:16;5.37;;;4.40;;
19643;SDS011;9970;-36.854;174.870;2023-06-14T10:57:54;7.73;;;5.77;;
19643;SDS011;9970;-36.854;174.870;2023-06-14T11:00:28;7.60;;;5.93;;
19643;SDS011;9970;-36.854;174.870;2023-06-14T11:03:28;5.80;;;4.60;;
19643;SDS011;9970;-36.854;174.870;2023-06-14T11:06:13;6.87;;;5.60;;
19643;SDS011;9970;-36.854;174.870;2023-06-14T11:11:49;7.53;;;5.30;;
19643;SDS011;9970;-36.854;174.870;2023-06-14T11:14:24;5.23;;;4.87;;
19643;SDS011;9970;-36.854;174.870;2023-06-14T11:17:03;5.80;;;5.23;;
19643;SDS011;9970;-36.854;174.870;2023-06-14T11:19:36;6.10;;;5.43;;
19643;SDS011;9970;-36.854;174.870;2023-06-14T11:22:09;6.23;;;5.30;;
19643;SDS011;9970;-36.854;174.870;2023-06-14T11:24:44;6.27;;;5.67;;
19643;SDS011;9970;-36.854;174.870;2023-06-14T11:27:17;10.07;;;6.60;;
19643;SDS011;9970;-36.854;174.870;2023-06-14T11:29:52;13.27;;;8.67;;
19643;SDS011;9970;-36.854;174.870;2023-06-14T11:32:25;16.67;;;10.80;;
19643;SDS011;9970;-36.854;174.870;2023-06-14T11:34:58;12.83;;;9.67;;
19643;SDS011;9970;-36.854;174.870;2023-06-14T11:37:31;16.93;;;9.00;;
19643;SDS011;9970;-36.854;174.870;2023-06-14T11:40:05;12.07;;;8.13;;
19643;SDS011;9970;-36.854;174.870;2023-06-14T11:42:41;12.30;;;8.50;;
19643;SDS011;9970;-36.854;174.870;2023-06-14T11:45:14;11.30;;;7.90;;
19643;SDS011;9970;-36.854;174.870;2023-06-14T11:47:49;9.30;;;7.10;;
19643;SDS011;9970;-36.854;174.870;2023-06-14T11:50:22;8.20;;;5.87;;
19643;SDS011;9970;-36.854;174.870;2023-06-14T11:52:56;5.77;;;5.20;;
19643;SDS011;9970;-36.854;174.870;2023-06-14T11:55:31;6.60;;;5.97;;
19643;SDS011;9970;-36.854;174.870;2023-06-14T11:58:05;8.10;;;5.70;;
19643;SDS011;9970;-36.854;174.870;2023-06-14T12:00:38;8.37;;;5.23;;
19643;SDS011;9970;-36.854;174.870;2023-06-14T12:03:11;5.43;;;4.60;;
19643;SDS011;9970;-36.854;174.870;2023-06-14T12:05:44;6.50;;;5.13;;
19643;SDS011;9970;-36.854;174.870;2023-06-14T12:08:17;8.20;;;5.37;;
19643;SDS011;9970;-36.854;174.870;2023-06-14T12:10:51;4.33;;;4.03;;
19643;SDS011;9970;-36.854;174.870;2023-06-14T12:13:24;4.33;;;4.10;;
19643;SDS011;9970;-36.854;174.870;2023-06-14T12:15:57;3.90;;;3.60;;
19643;SDS011;9970;-36.854;174.870;2023-06-14T12:18:33;5.57;;;4.63;;
19643;SDS011;9970;-36.854;174.870;2023-06-14T12:21:07;4.20;;;3.80;;
19643;SDS011;9970;-36.854;174.870;2023-06-14T12:23:49;7.67;;;4.20;;
19643;SDS011;9970;-36.854;174.870;2023-06-14T12:26:23;10.13;;;4.77;;
19643;SDS011;9970;-36.854;174.870;2023-06-14T12:28:57;4.83;;;4.20;;
19643;SDS011;9970;-36.854;174.870;2023-06-14T12:31:30;6.40;;;5.30;;
19643;SDS011;9970;-36.854;174.870;2023-06-14T12:34:03;3.90;;;3.60;;
19643;SDS011;9970;-36.854;174.870;2023-06-14T12:36:36;3.93;;;3.63;;
19643;SDS011;9970;-36.854;174.870;2023-06-14T12:39:10;4.13;;;3.73;;
19643;SDS011;9970;-36.854;174.870;2023-06-14T12:41:43;3.30;;;3.20;;
19643;SDS011;9970;-36.854;174.870;2023-06-14T12:44:15;8.00;;;4.17;;
19643;SDS011;9970;-36.854;174.870;2023-06-14T12:46:48;6.53;;;4.13;;
19643;SDS011;9970;-36.854;174.870;2023-06-14T12:49:25;3.60;;;3.40;;
19643;SDS011;9970;-36.854;174.870;2023-06-14T12:51:58;7.10;;;3.33;;
19643;SDS011;9970;-36.854;174.870;2023-06-14T12:54:31;3.40;;;3.20;;
19643;SDS011;9970;-36.854;174.870;2023-06-14T12:57:05;3.20;;;2.87;;
19643;SDS011;9970;-36.854;174.870;2023-06-14T12:59:39;2.37;;;2.17;;
19643;SDS011;9970;-36.854;174.870;2023-06-14T13:02:18;2.97;;;2.53;;
19643;SDS011;9970;-36.854;174.870;2023-06-14T13:04:53;2.10;;;1.90;;
19643;SDS011;9970;-36.854;174.870;2023-06-14T13:07:27;2.13;;;1.90;;
19643;SDS011;9970;-36.854;174.870;2023-06-14T13:09:59;2.60;;;2.07;;
19643;SDS011;9970;-36.854;174.870;2023-06-14T13:12:33;3.37;;;2.60;;
19643;SDS011;9970;-36.854;174.870;2023-06-14T13:15:06;2.30;;;1.97;;
19643;SDS011;9970;-36.854;174.870;2023-06-14T13:17:39;2.43;;;2.23;;
19643;SDS011;9970;-36.854;174.870;2023-06-14T13:20:13;2.67;;;2.50;;
19643;SDS011;9970;-36.854;174.870;2023-06-14T13:22:47;2.43;;;2.33;;
19643;SDS011;9970;-36.854;174.870;2023-06-14T13:25:21;2.80;;;2.60;;
19643;SDS011;9970;-36.854;174.870;2023-06-14T13:27:54;1.97;;;1.87;;
19643;SDS011;9970;-36.854;174.870;2023-06-14T13:30:27;2.77;;;2.47;;
19643;SDS011;9970;-36.854;174.870;2023-06-14T13:33:00;2.83;;;2.60;;
19643;SDS011;9970;-36.854;174.870;2023-06-14T13:35:33;2.33;;;2.20;;
19643;SDS011;9970;-36.854;174.870;2023-06-14T13:38:06;2.50;;;2.40;;
19643;SDS011;9970;-36.854;174.870;2023-06-14T13:40:39;3.23;;;2.67;;
19643;SDS011;9970;-36.854;174.870;2023-06-14T13:43:12;2.20;;;2.10;;
19643;SDS011;9970;-36.854;174.870;2023-06-14T13:45:45;2.00;;;1.90;;
19643;SDS011;9970;-36.854;174.870;2023-06-14T13:48:18;3.33;;;2.60;;
19643;SDS011;9970;-36.854;174.870;2023-06-14T13:50:51;3.60;;;3.30;;
19643;SDS011;9970;-36.854;174.870;2023-06-14T13:53:24;2.40;;;2.30;;
19643;SDS011;9970;-36.854;174.870;2023-06-14T13:55:57;5.90;;;2.83;;
19643;SDS011;9970;-36.854;174.870;2023-06-14T13:58:30;2.40;;;2.30;;
19643;SDS011;9970;-36.854;174.870;2023-06-14T14:01:03;3.20;;;3.00;;
19643;SDS011;9970;-36.854;174.870;2023-06-14T14:03:37;3.00;;;2.80;;
19643;SDS011;9970;-36.854;174.870;2023-06-14T14:06:10;3.40;;;3.20;;
19643;SDS011;9970;-36.854;174.870;2023-06-14T14:08:43;4.37;;;3.53;;
19643;SDS011;9970;-36.854;174.870;2023-06-14T14:11:16;3.60;;;3.30;;
19643;SDS011;9970;-36.854;174.870;2023-06-14T14:13:48;3.23;;;3.03;;
19643;SDS011;9970;-36.854;174.870;2023-06-14T14:16:22;6.33;;;3.07;;
19643;SDS011;9970;-36.854;174.870;2023-06-14T14:18:55;7.27;;;4.97;;
19643;SDS011;9970;-36.854;174.870;2023-06-14T14:21:28;7.90;;;4.87;;
19643;SDS011;9970;-36.854;174.870;2023-06-14T14:24:01;4.40;;;4.20;;
19643;SDS011;9970;-36.854;174.870;2023-06-14T14:26:34;7.53;;;4.40;;
19643;SDS011;9970;-36.854;174.870;2023-06-14T14:29:07;4.30;;;3.90;;
19643;SDS011;9970;-36.854;174.870;2023-06-14T14:31:41;3.80;;;3.60;;
19643;SDS011;9970;-36.854;174.870;2023-06-14T14:34:14;4.17;;;3.87;;
19643;SDS011;9970;-36.854;174.870;2023-06-14T14:36:49;5.03;;;4.73;;
19643;SDS011;9970;-36.854;174.870;2023-06-14T14:39:22;3.33;;;3.13;;
19643;SDS011;9970;-36.854;174.870;2023-06-14T14:41:55;3.60;;;3.30;;
19643;SDS011;9970;-36.854;174.870;2023-06-14T14:44:28;5.93;;;3.60;;
19643;SDS011;9970;-36.854;174.870;2023-06-14T14:47:01;4.10;;;2.77;;
19643;SDS011;9970;-36.854;174.870;2023-06-14T14:49:35;4.13;;;3.83;;
19643;SDS011;9970;-36.854;174.870;2023-06-14T14:52:07;3.90;;;3.70;;
19643;SDS011;9970;-36.854;174.870;2023-06-14T14:54:42;3.80;;;3.60;;
19643;SDS011;9970;-36.854;174.870;2023-06-14T14:57:14;3.80;;;3.03;;
19643;SDS011;9970;-36.854;174.870;2023-06-14T14:59:47;3.40;;;3.10;;
19643;SDS011;9970;-36.854;174.870;2023-06-14T15:02:20;5.43;;;3.87;;
19643;SDS011;9970;-36.854;174.870;2023-06-14T15:04:53;4.53;;;4.27;;
19643;SDS011;9970;-36.854;174.870;2023-06-14T15:07:28;3.23;;;2.60;;
19643;SDS011;9970;-36.854;174.870;2023-06-14T15:10:05;2.87;;;2.60;;